Med Cerkezkoy — TCA4407 — position and weather

sailwx.info

Track history (hours):
 
Tides and Currents Weather Stations Pressure Air Temp Water Temp Dewpoint Dewpoint Depression Visibility Wind Speed Wind Dir Waves Ship Positions

Med Cerkezkoy

Last reported at 2018-Apr-14 11:49 UTC. Time now 2018-Apr-23 00:12 UTC.
Position N 35°25' E 030°35'.
Warning: this ship's position is 8 days out of date.

Length 140 m; draft 7.6 m.

Type: Ship (hazmat cat A). MMSI: 271044659.

Date/timePositionNaut miles runAvg speedWind from/ knotsBaromVisibWave heightAir tempDewpointWater temp
2018-Apr-14 11:49N 35°25' E 030°35'6 9.9
2018-Apr-14 11:11N 35°21' E 030°42'210.0
2018-Apr-14 11:00N 35°20' E 030°44'510.3
2018-Apr-14 10:30N 35°17' E 030°49'510.2
2018-Apr-14 10:00N 35°14' E 030°54'5 9.9
2018-Apr-14 09:28N 35°12' E 030°60'5 9.7
2018-Apr-14 08:58N 35°09' E 031°05'5 9.9
2018-Apr-14 08:30N 35°07' E 031°09'5 9.8
2018-Apr-14 07:58N 35°04' E 031°15'510.1
2018-Apr-14 07:29N 35°02' E 031°20'4210.3
2018-Apr-14 03:22N 34°38' E 032°03'410.2
2018-Apr-14 03:00N 34°36' E 032°07'510.1
2018-Apr-14 02:30N 34°34' E 032°12'610.1
2018-Apr-14 01:56N 34°31' E 032°18'47 9.9
2018-Apr-13 21:10N 34°19' E 033°13'2 9.2
2018-Apr-13 21:00N 34°18' E 033°15'5 9.4
2018-Apr-13 20:25N 34°17' E 033°21'8 9.6
2018-Apr-13 19:33N 34°15' E 033°31'4 9.8
2018-Apr-13 19:11N 34°14' E 033°35'4 9.7
2018-Apr-13 18:45N 34°14' E 033°40'3 9.9
2018-Apr-13 18:27N 34°13' E 033°44'5 9.7
2018-Apr-13 17:58N 34°12' E 033°50'6 9.7
2018-Apr-13 17:23N 34°11' E 033°56'4 9.9
2018-Apr-13 17:00N 34°10' E 034°01'5 9.9
2018-Apr-13 16:30N 34°09' E 034°06'1810.1
2018-Apr-13 14:43N 34°04' E 034°28'1810.1
2018-Apr-13 12:56N 34°00' E 034°49'410.0
2018-Apr-13 12:30N 33°59' E 034°54'7 9.9
2018-Apr-13 11:47N 33°57' E 035°02'4 9.8
2018-Apr-13 11:23N 33°57' E 035°07'4 9.8
2018-Apr-13 11:00N 33°56' E 035°11'5 9.8
2018-Apr-13 10:28N 33°55' E 035°17'  
2018-Apr-06 17:13N 37°32' E 023°47'2 9.2
2018-Apr-06 17:00N 37°33' E 023°46'4 9.0
2018-Apr-06 16:31N 37°38' E 023°44'5 9.1
2018-Apr-06 16:00N 37°42' E 023°41'5 9.3
2018-Apr-06 15:31N 37°46' E 023°39'5 9.4
2018-Apr-06 15:01N 37°50' E 023°36'4 7.8
2018-Apr-06 14:31N 37°52' E 023°32'0 0.7
2018-Apr-06 13:59N 37°52' E 023°32'0 0.1
2018-Apr-06 13:29N 37°52' E 023°32'0 0.1
2018-Apr-06 12:59N 37°52' E 023°32'0 0.0
2018-Apr-06 12:29N 37°52' E 023°32'0 0.1
2018-Apr-06 11:59N 37°52' E 023°32'0 0.1
2018-Apr-06 11:29N 37°52' E 023°32'0 0.3
2018-Apr-06 10:59N 37°52' E 023°32'0 0.1
2018-Apr-06 10:29N 37°52' E 023°32'0 0.2
2018-Apr-06 09:59N 37°52' E 023°32'0 0.3
2018-Apr-06 09:29N 37°52' E 023°32'0 0.1
2018-Apr-06 08:59N 37°52' E 023°32'0 0.0
2018-Apr-06 08:29N 37°52' E 023°32'0 0.1
2018-Apr-06 07:59N 37°52' E 023°32'0 0.0
2018-Apr-06 07:29N 37°52' E 023°32'0 0.2
2018-Apr-06 07:01N 37°52' E 023°32'3 5.5
2018-Apr-06 06:30N 37°52' E 023°35'4 8.3
2018-Apr-06 06:00N 37°50' E 023°40'4 8.6
2018-Apr-06 05:30N 37°46' E 023°42'5 9.4
2018-Apr-06 05:00N 37°42' E 023°45'5 9.0
2018-Apr-06 04:30N 37°38' E 023°48'6 9.8
2018-Apr-06 03:56N 37°36' E 023°55'82 8.9
2018-Apr-05 18:40N 38°39' E 025°03'  
Track history (hours):
 
Tides and Currents Weather Stations Pressure Air Temp Water Temp Dewpoint Dewpoint Depression Visibility Wind Speed Wind Dir Waves Ship Positions

Med Cerkezkoy

Last reported at 2018-Apr-14 11:49 UTC. Time now 2018-Apr-23 00:12 UTC.
Position N 35°25' E 030°35'.
Warning: this ship's position is 8 days out of date.

Length 140 m; draft 7.6 m.

Type: Ship (hazmat cat A). MMSI: 271044659.

Date/timePositionNaut miles runAvg speedWind from/ knotsBaromVisibWave heightAir tempDewpointWater temp
2018-Apr-14 11:49N 35°25' E 030°35'6 9.9
2018-Apr-14 11:11N 35°21' E 030°42'210.0
2018-Apr-14 11:00N 35°20' E 030°44'510.3
2018-Apr-14 10:30N 35°17' E 030°49'510.2
2018-Apr-14 10:00N 35°14' E 030°54'5 9.9
2018-Apr-14 09:28N 35°12' E 030°60'5 9.7
2018-Apr-14 08:58N 35°09' E 031°05'5 9.9
2018-Apr-14 08:30N 35°07' E 031°09'5 9.8
2018-Apr-14 07:58N 35°04' E 031°15'510.1
2018-Apr-14 07:29N 35°02' E 031°20'4210.3
2018-Apr-14 03:22N 34°38' E 032°03'410.2
2018-Apr-14 03:00N 34°36' E 032°07'510.1
2018-Apr-14 02:30N 34°34' E 032°12'610.1
2018-Apr-14 01:56N 34°31' E 032°18'47 9.9
2018-Apr-13 21:10N 34°19' E 033°13'2 9.2
2018-Apr-13 21:00N 34°18' E 033°15'5 9.4
2018-Apr-13 20:25N 34°17' E 033°21'8 9.6
2018-Apr-13 19:33N 34°15' E 033°31'4 9.8
2018-Apr-13 19:11N 34°14' E 033°35'4 9.7
2018-Apr-13 18:45N 34°14' E 033°40'3 9.9
2018-Apr-13 18:27N 34°13' E 033°44'5 9.7
2018-Apr-13 17:58N 34°12' E 033°50'6 9.7
2018-Apr-13 17:23N 34°11' E 033°56'4 9.9
2018-Apr-13 17:00N 34°10' E 034°01'5 9.9
2018-Apr-13 16:30N 34°09' E 034°06'1810.1
2018-Apr-13 14:43N 34°04' E 034°28'1810.1
2018-Apr-13 12:56N 34°00' E 034°49'410.0
2018-Apr-13 12:30N 33°59' E 034°54'7 9.9
2018-Apr-13 11:47N 33°57' E 035°02'4 9.8
2018-Apr-13 11:23N 33°57' E 035°07'4 9.8
2018-Apr-13 11:00N 33°56' E 035°11'5 9.8
2018-Apr-13 10:28N 33°55' E 035°17'  
2018-Apr-06 17:13N 37°32' E 023°47'2 9.2
2018-Apr-06 17:00N 37°33' E 023°46'4 9.0
2018-Apr-06 16:31N 37°38' E 023°44'5 9.1
2018-Apr-06 16:00N 37°42' E 023°41'5 9.3
2018-Apr-06 15:31N 37°46' E 023°39'5 9.4
2018-Apr-06 15:01N 37°50' E 023°36'4 7.8
2018-Apr-06 14:31N 37°52' E 023°32'0 0.7
2018-Apr-06 13:59N 37°52' E 023°32'0 0.1
2018-Apr-06 13:29N 37°52' E 023°32'0 0.1
2018-Apr-06 12:59N 37°52' E 023°32'0 0.0
2018-Apr-06 12:29N 37°52' E 023°32'0 0.1
2018-Apr-06 11:59N 37°52' E 023°32'0 0.1
2018-Apr-06 11:29N 37°52' E 023°32'0 0.3
2018-Apr-06 10:59N 37°52' E 023°32'0 0.1
2018-Apr-06 10:29N 37°52' E 023°32'0 0.2
2018-Apr-06 09:59N 37°52' E 023°32'0 0.3
2018-Apr-06 09:29N 37°52' E 023°32'0 0.1
2018-Apr-06 08:59N 37°52' E 023°32'0 0.0
2018-Apr-06 08:29N 37°52' E 023°32'0 0.1
2018-Apr-06 07:59N 37°52' E 023°32'0 0.0
2018-Apr-06 07:29N 37°52' E 023°32'0 0.2
2018-Apr-06 07:01N 37°52' E 023°32'3 5.5
2018-Apr-06 06:30N 37°52' E 023°35'4 8.3
2018-Apr-06 06:00N 37°50' E 023°40'4 8.6
2018-Apr-06 05:30N 37°46' E 023°42'5 9.4
2018-Apr-06 05:00N 37°42' E 023°45'5 9.0
2018-Apr-06 04:30N 37°38' E 023°48'6 9.8
2018-Apr-06 03:56N 37°36' E 023°55'82 8.9
2018-Apr-05 18:40N 38°39' E 025°03'  

Dump ship's entire track history